Yushu, China
Current Conditions -  °F | °C
As of 10:00 PM on Sunday 25 Jan 2015 (Local Time) from ZUUU Reporting Station
Haze Haze  
Wind Chill: 54°   Ceiling: Unl
Heat Index: 54°   Visibility: 2.5mi
Dew Point: 46°   Wind: 7mph
Humidity: 77%   Direction: 360°N
Pressure: 30.12"   Gusts: NA
Location:  33.02°N, 97.02°E
Report Text: ZUUU 251400Z 36003MPS 4000 BR SCT040 12/08 Q1020 NOSIG
Loading
Personal Weather Stations






























Interactive Weather Map New forecast layout! Learn more

10-Day Weather Forecast

Advertisements
Track Severe Weather on mobile